CDT,Max TemperatureF,Mean TemperatureF,Min TemperatureF,Max Dew PointF,MeanDew PointF,Min DewpointF,Max Humidity, Mean Humidity, Min Humidity, Max Sea Level PressureIn, Mean Sea Level PressureIn, Min Sea Level PressureIn, Max VisibilityMiles, Mean VisibilityMiles, Min VisibilityMiles, Max Wind SpeedMPH, Mean Wind SpeedMPH, Max Gust SpeedMPH,PrecipitationIn, CloudCover, Events, WindDirDegrees
2013-8-1,89,77,64,72,68,64,100,75,50,30.11,30.04,29.89,10,7,1,23,5,30,0.01,1,,174
2013-8-2,89,77,65,77,73,66,87,75,63,30.00,29.90,29.81,10,8,1,25,9,35,1.87,6,Rain-Thunderstorm,74
2013-8-3,84,78,71,72,70,67,93,81,69,30.09,30.02,29.90,10,10,5,14,8,20,0.04,6,Rain,61
2013-8-4,77,73,68,72,69,66,97,87,76,30.13,30.07,29.99,10,8,2,15,6,20,0.55,7,Rain-Thunderstorm,79
2013-8-5,83,78,72,74,72,69,94,84,74,30.02,29.91,29.82,10,10,8,13,4,14,T,7,,69
2013-8-6,91,81,70,76,72,70,100,80,59,29.90,29.82,29.76,10,6,0,14,3,18,0.00,2,Fog,161
2013-8-7,85,77,69,75,70,64,91,78,65,29.95,29.88,29.76,10,9,2,31,7,39,0.37,2,Rain-Thunderstorm,32
2013-8-8,75,71,67,69,66,62,87,78,69,30.01,29.96,29.88,10,10,9,14,7,18,0.04,5,Rain,74
2013-8-9,79,72,64,67,66,64,93,80,67,30.13,30.05,29.99,10,10,5,10,3,15,T,4,Rain,62
2013-8-10,84,73,61,68,64,61,100,76,51,30.19,30.15,30.07,10,5,0,10,3,17,0.00,2,Fog,82
2013-8-11,87,76,65,70,66,62,93,72,51,30.12,30.06,29.99,10,10,10,10,3,14,0.00,1,,191
2013-8-12,85,76,67,70,68,66,93,76,59,30.09,30.02,29.96,10,9,0,15,3,30,0.97,5,Fog-Rain-Thunderstorm,105
2013-8-13,81,72,62,69,65,61,97,78,58,30.13,30.07,30.02,10,10,9,13,5,17,0.00,1,,63
2013-8-14,81,70,59,64,61,58,100,76,51,30.17,30.12,30.05,10,9,6,9,3,13,0.00,2,,134
2013-8-15,81,73,64,66,62,57,100,80,60,30.08,30.03,29.98,10,9,3,18,6,23,0.25,5,Rain-Thunderstorm,151
2013-8-16,79,70,61,62,61,59,93,75,56,30.14,30.10,30.04,10,10,10,13,4,16,0.00,4,,95
2013-8-17,79,68,57,61,58,56,100,74,48,30.18,30.14,30.09,10,10,6,12,3,15,0.00,1,Rain,127
2013-8-18,82,68,53,64,60,53,100,76,51,30.16,30.10,30.03,10,10,6,13,3,20,0.00,1,,156
2013-8-19,87,74,61,69,65,61,100,76,51,30.08,30.02,29.95,10,9,6,16,5,22,0.00,1,,191
2013-8-20,90,79,67,69,67,64,93,70,47,30.02,29.97,29.93,10,10,8,17,8,24,0.00,0,,195
2013-8-21,93,81,68,70,67,65,87,67,47,30.01,29.98,29.95,10,10,10,15,7,17,0.00,0,,197
2013-8-22,91,81,70,71,67,64,87,66,44,30.08,30.01,29.97,10,10,8,13,5,17,0.00,0,,195
2013-8-23,92,81,69,72,70,67,97,75,52,30.05,30.00,29.94,10,10,7,16,5,23,T,0,,149
2013-8-24,94,84,73,72,70,68,87,68,49,30.07,30.03,29.99,10,10,9,17,7,23,0.00,0,,182
2013-8-25,95,83,70,72,71,68,93,71,49,30.14,30.09,30.05,10,10,6,17,7,21,0.00,0,,189
2013-8-26,96,85,73,71,70,67,87,63,38,30.10,30.05,30.00,10,10,10,18,10,23,0.00,0,,203
2013-8-27,96,84,72,69,66,61,87,59,31,30.02,29.98,29.94,10,10,10,21,10,28,0.00,0,,213
2013-8-28,93,79,64,71,69,64,100,75,49,30.02,29.98,29.95,10,10,7,13,5,17,0.00,0,,203
2013-8-29,100,86,71,71,70,65,100,67,33,29.98,29.94,29.88,10,10,10,13,5,17,0.00,0,,198
2013-8-30,102,85,67,71,68,62,93,61,29,29.93,29.87,29.79,10,10,10,10,3,14,0.00,0,,215
2013-8-31,97,84,70,75,71,67,100,69,38,29.86,29.81,29.76,10,10,6,12,3,15,T,0,Rain,64